Time;durP1;ratioP1;P1;durP2;ratioP2;P2;SDS_P1;SDS_P2;PMS_P1;PMS_P2;Temp;Humidity;BMP_temperature;BMP_pressure;BME280_temperature;BME280_humidity;BME280_pressure;Samples;Min_cycle;Max_cycle;Signal;HPM_P1;HPM_P2
2023/01/18 00:02:11;;;;;;;13.38;4.43;;;;;;;-146.73;100.00;56421.06;6168614;23;20085;-93
2023/01/18 00:04:37;;;;;;;12.88;4.45;;;;;;;-146.73;100.00;56421.06;6157553;23;20005;-92
2023/01/18 00:07:05;;;;;;;13.13;4.38;;;;;;;-146.73;100.00;56421.06;6158083;23;20020;-94
2023/01/18 00:09:34;;;;;;;10.50;4.55;;;;;;;-146.73;100.00;56421.06;6157682;23;20016;-93
2023/01/18 00:12:00;;;;;;;13.02;4.60;;;;;;;-146.73;100.00;56421.06;6158025;23;20029;-94
2023/01/18 00:14:29;;;;;;;12.00;4.63;;;;;;;-146.73;100.00;56421.06;6158037;23;20013;-94
2023/01/18 00:16:58;;;;;;;9.02;3.92;;;;;;;-146.73;100.00;56421.06;6159026;23;20443;-94
2023/01/18 00:19:27;;;;;;;11.55;3.70;;;;;;;-146.73;100.00;56421.06;6183433;23;20040;-94
2023/01/18 00:21:55;;;;;;;9.73;3.25;;;;;;;-146.73;100.00;56421.06;6182545;23;20104;-94
2023/01/18 00:24:29;;;;;;;10.25;2.90;;;;;;;-146.73;100.00;56421.06;6184213;23;20113;-92
2023/01/18 00:26:57;;;;;;;5.82;1.95;;;;;;;-146.73;100.00;56421.06;6159293;23;20087;-92
2023/01/18 00:29:23;;;;;;;6.80;2.10;;;;;;;-146.73;100.00;56421.06;6184542;23;20012;-95
2023/01/18 00:32:09;;;;;;;5.22;1.73;;;;;;;-146.73;100.00;56421.06;6158429;23;20009;-92
2023/01/18 00:34:45;;;;;;;9.20;2.30;;;;;;;-146.73;100.00;56421.06;6182607;23;20009;-94
2023/01/18 00:37:11;;;;;;;7.10;2.17;;;;;;;-146.73;100.00;56421.06;6157868;23;20148;-93
2023/01/18 00:39:39;;;;;;;6.80;2.08;;;;;;;-146.73;100.00;56421.06;6156352;23;20017;-94
2023/01/18 00:44:58;;;;;;;7.18;2.20;;;;;;;-146.73;100.00;56421.06;6182061;23;20068;-95
2023/01/18 00:47:27;;;;;;;6.70;2.35;;;;;;;-146.73;100.00;56421.06;6156604;23;20019;-93
2023/01/18 00:49:55;;;;;;;7.82;2.42;;;;;;;-146.73;100.00;56421.06;6173948;23;20037;-94
2023/01/18 00:52:26;;;;;;;7.82;2.67;;;;;;;-146.73;100.00;56421.06;6200984;23;20005;-94
2023/01/18 00:55:20;;;;;;;8.10;2.80;;;;;;;-146.73;100.00;56421.06;6201175;23;20044;-93
2023/01/18 00:58:08;;;;;;;9.82;2.78;;;;;;;-146.73;100.00;56421.06;6174746;23;20008;-94
2023/01/18 01:00:34;;;;;;;8.38;3.20;;;;;;;-146.73;100.00;56421.06;6191042;23;20031;-92
2023/01/18 01:03:00;;;;;;;8.65;2.95;;;;;;;-146.73;100.00;56421.06;6215766;23;20019;-92
2023/01/18 01:08:23;;;;;;;10.73;3.58;;;;;;;-146.73;100.00;56421.06;6182402;23;20075;-95
2023/01/18 01:11:03;;;;;;;7.82;2.88;;;;;;;-146.73;100.00;56421.06;6184358;23;20012;-92
2023/01/18 01:27:36;;;;;;;8.23;3.13;;;;;;;-146.73;100.00;56421.06;6184238;23;20047;-94
2023/01/18 01:30:07;;;;;;;8.90;3.30;;;;;;;-146.73;100.00;56421.06;6182077;23;20036;-94
2023/01/18 01:32:49;;;;;;;12.43;3.38;;;;;;;-146.73;100.00;56421.06;6184880;23;20020;-95
2023/01/18 01:35:23;;;;;;;10.15;3.30;;;;;;;-146.73;100.00;56421.06;6182605;23;20023;-94
2023/01/18 01:38:00;;;;;;;9.05;3.28;;;;;;;-146.73;100.00;56421.06;6181066;23;20012;-93
2023/01/18 01:40:29;;;;;;;9.20;3.55;;;;;;;-146.73;100.00;56421.06;6181937;23;20024;-93
2023/01/18 01:43:05;;;;;;;8.73;3.70;;;;;;;-146.73;100.00;56421.06;6184101;23;20008;-93
2023/01/18 01:45:34;;;;;;;9.45;3.30;;;;;;;-146.73;100.00;56421.06;6182626;23;20020;-93
2023/01/18 01:48:12;;;;;;;9.63;3.15;;;;;;;-146.73;100.00;56421.06;6208546;23;20004;-93
2023/01/18 01:50:42;;;;;;;11.07;3.72;;;;;;;-146.73;100.00;56421.06;6182009;23;20005;-92
2023/01/18 01:53:18;;;;;;;10.05;3.15;;;;;;;-146.73;100.00;56421.06;6180141;23;20048;-94
2023/01/18 01:55:49;;;;;;;8.00;2.85;;;;;;;-146.73;100.00;56421.06;6204980;23;20495;-94
2023/01/18 01:58:24;;;;;;;8.80;3.20;;;;;;;-146.73;100.00;56421.06;6205482;23;20016;-93
2023/01/18 02:03:59;;;;;;;9.13;3.10;;;;;;;-146.73;100.00;56421.06;6181674;23;20462;-93
2023/01/18 02:09:38;;;;;;;9.00;3.60;;;;;;;-146.73;100.00;56421.06;6178891;23;20013;-94
2023/01/18 02:12:13;;;;;;;7.65;2.92;;;;;;;-146.73;100.00;56421.06;6179336;23;20017;-94
2023/01/18 02:14:54;;;;;;;11.02;3.60;;;;;;;-146.73;100.00;56421.06;6204701;23;20447;-93
2023/01/18 02:18:06;;;;;;;9.20;3.05;;;;;;;-146.73;100.00;56421.06;6179908;23;20013;-94
2023/01/18 02:20:54;;;;;;;13.40;3.50;;;;;;;-146.73;100.00;56421.06;6179262;23;20021;-94
2023/01/18 02:24:05;;;;;;;;;;;;;;;;;;;;;
2023/01/18 03:02:39;;;;;;;9.07;2.97;;;;;;;-146.73;100.00;56421.06;6178837;23;20024;-96
2023/01/18 03:05:09;;;;;;;9.82;3.60;;;;;;;-146.73;100.00;56421.06;6199343;23;20012;-96
2023/01/18 03:07:43;;;;;;;8.82;2.72;;;;;;;-146.73;100.00;56421.06;6202288;23;20005;-96
2023/01/18 03:10:11;;;;;;;8.95;3.30;;;;;;;-146.73;100.00;56421.06;6203725;22;20004;-94
2023/01/18 03:12:49;;;;;;;12.75;3.50;;;;;;;-146.73;100.00;56421.06;6181866;23;20503;-92
2023/01/18 03:15:18;;;;;;;10.35;3.90;;;;;;;-146.73;100.00;56421.06;6183656;23;20001;-95
2023/01/18 03:17:52;;;;;;;11.13;3.60;;;;;;;-146.73;100.00;56421.06;6182702;23;20263;-93
2023/01/18 03:20:30;;;;;;;11.70;3.85;;;;;;;-146.73;100.00;56421.06;6183684;23;20016;-93
2023/01/18 03:26:03;;;;;;;13.27;4.20;;;;;;;-146.73;100.00;56421.06;6184467;23;20015;-93
2023/01/18 03:34:23;;;;;;;11.85;4.65;;;;;;;-146.73;100.00;56421.06;6182336;23;20545;-93
2023/01/18 03:36:55;;;;;;;12.23;4.43;;;;;;;-146.73;100.00;56421.06;6183045;23;20312;-92
2023/01/18 03:39:35;;;;;;;10.40;4.18;;;;;;;-146.73;100.00;56421.06;6181550;23;20005;-94
2023/01/18 03:42:10;;;;;;;10.45;4.05;;;;;;;-146.73;100.00;56421.06;6183831;23;20036;-93
2023/01/18 03:44:46;;;;;;;13.55;3.95;;;;;;;-146.73;100.00;56421.06;6183319;23;20101;-92
2023/01/18 03:47:12;;;;;;;12.25;4.03;;;;;;;-146.73;100.00;56421.06;6181463;23;20016;-94
2023/01/18 03:49:37;;;;;;;12.80;4.43;;;;;;;-146.73;100.00;56421.06;6180845;23;20106;-94
2023/01/18 03:52:08;;;;;;;11.45;3.65;;;;;;;-146.73;100.00;56421.06;6181532;23;20013;-94
2023/01/18 03:54:49;;;;;;;11.52;4.07;;;;;;;-146.73;100.00;56421.06;6184551;23;20005;-94
2023/01/18 03:57:24;;;;;;;10.93;3.88;;;;;;;-146.73;100.00;56421.06;6181569;23;20024;-94
2023/01/18 03:59:50;;;;;;;13.52;3.97;;;;;;;-146.73;100.00;56421.06;6182118;23;20001;-93
2023/01/18 04:02:17;;;;;;;7.75;2.78;;;;;;;-146.73;100.00;56421.06;6183287;23;20024;-93
2023/01/18 04:04:43;;;;;;;7.82;3.10;;;;;;;-146.73;100.00;56421.06;6182625;23;20021;-94
2023/01/18 04:07:10;;;;;;;8.88;2.65;;;;;;;-146.73;100.00;56421.06;6181290;23;20012;-94
2023/01/18 04:09:35;;;;;;;8.40;2.70;;;;;;;-146.73;100.00;56421.06;6182941;23;20481;-94
2023/01/18 04:12:01;;;;;;;8.60;2.35;;;;;;;-146.73;100.00;56421.06;6182449;23;20021;-93
2023/01/18 04:14:26;;;;;;;7.57;2.80;;;;;;;-146.73;100.00;56421.06;6182684;23;20096;-94
2023/01/18 04:16:52;;;;;;;7.95;2.97;;;;;;;-146.73;100.00;56421.06;6184531;23;20031;-93
2023/01/18 04:19:18;;;;;;;8.52;2.80;;;;;;;-146.73;100.00;56421.06;6182583;23;20561;-93
2023/01/18 04:21:43;;;;;;;11.48;3.58;;;;;;;-146.73;100.00;56421.06;6182028;23;20545;-93
2023/01/18 04:24:10;;;;;;;9.40;3.42;;;;;;;-146.73;100.00;56421.06;6182424;23;20544;-93
2023/01/18 04:26:37;;;;;;;7.95;2.70;;;;;;;-146.73;100.00;56421.06;6190153;23;20045;-96
2023/01/18 04:29:07;;;;;;;9.23;2.85;;;;;;;-146.73;100.00;56421.06;6166424;23;20013;-96
2023/01/18 04:31:33;;;;;;;6.93;2.50;;;;;;;-146.73;100.00;56421.06;6194192;23;20025;-96
2023/01/18 04:34:01;;;;;;;9.13;2.15;;;;;;;-146.73;100.00;56421.06;6196799;23;19997;-96
2023/01/18 04:36:27;;;;;;;6.55;2.20;;;;;;;-146.73;100.00;56421.06;6197047;23;20027;-95
2023/01/18 04:38:54;;;;;;;6.63;2.03;;;;;;;-146.73;100.00;56421.06;6195181;23;20016;-96
2023/01/18 04:41:22;;;;;;;7.18;2.03;;;;;;;-146.73;100.00;56421.06;6197520;23;20009;-95
2023/01/18 04:43:48;;;;;;;7.20;1.92;;;;;;;-146.73;100.00;56421.06;6196109;23;20039;-96
2023/01/18 04:46:17;;;;;;;7.07;2.03;;;;;;;-146.73;100.00;56421.06;6200735;23;20086;-96
2023/01/18 04:48:49;;;;;;;7.28;1.95;;;;;;;-146.73;100.00;56421.06;6202329;23;20040;-96
2023/01/18 04:51:18;;;;;;;6.57;1.73;;;;;;;-146.73;100.00;56421.06;6200004;23;20076;-96
2023/01/18 04:53:48;;;;;;;7.10;1.67;;;;;;;-146.73;100.00;56421.06;6196522;23;20009;-94
2023/01/18 04:56:14;;;;;;;5.90;1.70;;;;;;;-146.73;100.00;56421.06;6194967;23;20015;-96
2023/01/18 04:58:45;;;;;;;7.03;1.63;;;;;;;-146.73;100.00;56421.06;6195540;23;20009;-96
2023/01/18 05:01:12;;;;;;;6.45;1.40;;;;;;;-146.73;100.00;56421.06;6189590;23;20103;-93
2023/01/18 05:03:42;;;;;;;4.88;1.17;;;;;;;-146.73;100.00;56421.06;6185496;23;20048;-94
2023/01/18 05:06:13;;;;;;;5.85;1.52;;;;;;;-146.73;100.00;56421.06;6186313;23;20016;-95
2023/01/18 05:08:42;;;;;;;4.88;1.30;;;;;;;-146.73;100.00;56421.06;6186668;23;20012;-95
2023/01/18 05:11:13;;;;;;;4.95;1.40;;;;;;;-146.73;100.00;56421.06;6185807;23;20009;-94
2023/01/18 05:13:44;;;;;;;5.13;1.42;;;;;;;-146.73;100.00;56421.06;6189991;23;20071;-96
2023/01/18 05:16:17;;;;;;;5.72;1.55;;;;;;;-146.73;100.00;56421.06;6190898;23;20009;-96
2023/01/18 05:18:45;;;;;;;4.45;1.35;;;;;;;-146.73;100.00;56421.06;6190780;23;20036;-96
2023/01/18 05:21:11;;;;;;;5.78;1.15;;;;;;;-146.73;100.00;56421.06;6190074;23;20040;-95
2023/01/18 05:23:46;;;;;;;7.65;1.42;;;;;;;-146.73;100.00;56421.06;6191555;23;20020;-95
2023/01/18 05:26:20;;;;;;;7.45;1.50;;;;;;;-146.73;100.00;56421.06;6191154;23;20048;-96
2023/01/18 05:28:47;;;;;;;5.57;1.48;;;;;;;-146.73;100.00;56421.06;6251411;23;20000;-96
2023/01/18 05:31:13;;;;;;;5.68;1.50;;;;;;;-146.73;100.00;56421.06;6225575;23;20022;-96
2023/01/18 05:33:39;;;;;;;5.95;1.50;;;;;;;-146.73;100.00;56421.06;6227633;23;20004;-96
2023/01/18 05:36:05;;;;;;;7.03;1.60;;;;;;;-146.73;100.00;56421.06;6226977;22;20014;-94
2023/01/18 05:38:31;;;;;;;5.03;1.45;;;;;;;-146.73;100.00;56421.06;6241052;22;20030;-96
2023/01/18 05:40:57;;;;;;;7.25;1.50;;;;;;;-146.73;100.00;56421.06;6238609;22;20012;-95
2023/01/18 05:43:30;;;;;;;5.93;1.60;;;;;;;-146.73;100.00;56421.06;6223126;23;20019;-96
2023/01/18 05:45:57;;;;;;;6.18;1.50;;;;;;;-146.73;100.00;56421.06;6228182;23;20004;-94
2023/01/18 05:48:24;;;;;;;10.10;2.13;;;;;;;-146.73;100.00;56421.06;6234878;22;20024;-96
2023/01/18 05:50:50;;;;;;;5.55;1.30;;;;;;;-146.73;100.00;56421.06;6243307;22;19996;-95
2023/01/18 05:53:29;;;;;;;5.70;1.35;;;;;;;-146.73;100.00;56421.06;6235637;23;20065;-96
2023/01/18 05:55:59;;;;;;;5.50;1.40;;;;;;;-146.73;100.00;56421.06;6225658;23;20008;-95
2023/01/18 05:58:30;;;;;;;5.20;1.25;;;;;;;-146.73;100.00;56421.06;6227620;23;20008;-95
2023/01/18 06:00:57;;;;;;;7.68;1.52;;;;;;;-146.73;100.00;56421.06;6224149;23;20016;-96
2023/01/18 06:03:24;;;;;;;5.10;1.50;;;;;;;-146.73;100.00;56421.06;6224447;23;20008;-96
2023/01/18 06:05:58;;;;;;;7.78;1.77;;;;;;;-146.73;100.00;56421.06;6224323;23;20389;-96
2023/01/18 06:08:54;;;;;;;8.15;2.00;;;;;;;-146.73;100.00;56421.06;6228730;23;20000;-96
2023/01/18 06:11:19;;;;;;;4.85;1.30;;;;;;;-146.73;100.00;56421.06;6224806;23;20012;-94
2023/01/18 06:13:54;;;;;;;7.22;1.50;;;;;;;-146.73;100.00;56421.06;6234239;23;20105;-96
2023/01/18 06:19:18;;;;;;;11.27;2.15;;;;;;;-146.73;100.00;56421.06;6206837;23;20024;-90
2023/01/18 06:21:43;;;;;;;35.90;3.22;;;;;;;-146.73;100.00;56421.06;6181548;23;20102;-90
2023/01/18 06:24:09;;;;;;;9.10;2.20;;;;;;;-146.73;100.00;56421.06;6180297;23;20135;-90
2023/01/18 06:26:35;;;;;;;8.30;1.80;;;;;;;-146.73;100.00;56421.06;6181591;23;20414;-89
2023/01/18 06:29:00;;;;;;;10.57;2.00;;;;;;;-146.73;100.00;56421.06;6208479;23;20453;-90
2023/01/18 06:31:26;;;;;;;6.95;2.10;;;;;;;-146.73;100.00;56421.06;6181802;23;20033;-90
2023/01/18 06:33:52;;;;;;;8.52;2.03;;;;;;;-146.73;100.00;56421.06;6213282;23;20012;-89
2023/01/18 06:36:17;;;;;;;5.82;1.45;;;;;;;-146.73;100.00;56421.06;6213092;23;20059;-89
2023/01/18 06:38:43;;;;;;;6.80;1.92;;;;;;;-146.73;100.00;56421.06;6205717;23;20054;-90
2023/01/18 06:41:08;;;;;;;7.13;1.88;;;;;;;-146.73;100.00;56421.06;6180776;23;20330;-90
2023/01/18 06:43:37;;;;;;;9.93;2.20;;;;;;;-146.73;100.00;56421.06;6181291;23;20354;-90
2023/01/18 06:46:06;;;;;;;7.60;2.00;;;;;;;-146.73;100.00;56421.06;6220171;23;20016;-89
2023/01/18 06:48:32;;;;;;;7.95;2.10;;;;;;;-146.73;100.00;56421.06;6185244;23;20469;-89
2023/01/18 06:50:58;;;;;;;6.50;2.05;;;;;;;-146.73;100.00;56421.06;6181059;23;20493;-90
2023/01/18 06:53:24;;;;;;;6.78;2.05;;;;;;;-146.73;100.00;56421.06;6180904;23;20051;-89
2023/01/18 06:55:58;;;;;;;8.48;1.83;;;;;;;-146.73;100.00;56421.06;6180853;23;20016;-90
2023/01/18 06:58:25;;;;;;;9.40;2.25;;;;;;;-146.73;100.00;56421.06;6181227;23;20021;-90
2023/01/18 07:00:58;;;;;;;6.97;2.17;;;;;;;-146.73;100.00;56421.06;6208178;23;20012;-90
2023/01/18 07:03:25;;;;;;;7.05;2.10;;;;;;;-146.73;100.00;56421.06;6180072;23;20091;-91
2023/01/18 07:05:53;;;;;;;7.22;1.75;;;;;;;-146.73;100.00;56421.06;6207659;23;20020;-90
2023/01/18 07:08:22;;;;;;;7.53;2.03;;;;;;;-146.73;100.00;56421.06;6180505;23;20016;-90
2023/01/18 07:10:58;;;;;;;10.40;2.45;;;;;;;-146.73;100.00;56421.06;6181028;23;20016;-90
2023/01/18 07:13:24;;;;;;;7.32;1.92;;;;;;;-146.73;100.00;56421.06;6207726;23;20012;-90
2023/01/18 07:16:00;;;;;;;6.75;2.08;;;;;;;-146.73;100.00;56421.06;6181602;23;20005;-89
2023/01/18 07:18:28;;;;;;;8.18;2.20;;;;;;;-146.73;100.00;56421.06;6174896;23;20219;-89
2023/01/18 07:21:08;;;;;;;6.00;1.42;;;;;;;-146.73;100.00;56421.06;6175397;23;20013;-89
2023/01/18 07:23:37;;;;;;;9.45;2.30;;;;;;;-146.73;100.00;56421.06;6178587;23;20040;-90
2023/01/18 07:26:04;;;;;;;9.05;2.10;;;;;;;-146.73;100.00;56421.06;6176849;23;20088;-90
2023/01/18 07:28:35;;;;;;;7.90;1.70;;;;;;;-146.73;100.00;56421.06;6176521;23;20506;-91
2023/01/18 07:31:01;;;;;;;8.60;2.13;;;;;;;-146.73;100.00;56421.06;6177596;23;20044;-90
2023/01/18 07:33:27;;;;;;;8.30;2.47;;;;;;;-146.73;100.00;56421.06;6176266;23;20044;-90
2023/01/18 07:35:55;;;;;;;8.95;2.15;;;;;;;-146.73;100.00;56421.06;6177821;23;20467;-90
2023/01/18 07:41:36;;;;;;;8.13;2.28;;;;;;;-146.73;100.00;56421.06;6175339;23;20019;-90
2023/01/18 07:44:03;;;;;;;8.82;2.70;;;;;;;-146.73;100.00;56421.06;6177579;23;20063;-89
2023/01/18 07:46:28;;;;;;;8.65;2.17;;;;;;;-146.73;100.00;56421.06;6175451;23;20300;-89
2023/01/18 07:48:54;;;;;;;9.65;2.08;;;;;;;-146.73;100.00;56421.06;6174404;23;20040;-90
2023/01/18 07:51:21;;;;;;;7.32;2.08;;;;;;;-146.73;100.00;56421.06;6178226;23;20012;-90
2023/01/18 07:53:47;;;;;;;7.65;2.47;;;;;;;-146.73;100.00;56421.06;6175950;23;20009;-92
2023/01/18 07:56:22;;;;;;;7.57;2.00;;;;;;;-146.73;100.00;56421.06;6173970;23;20569;-90
2023/01/18 07:59:11;;;;;;;7.63;1.67;;;;;;;-146.73;100.00;56421.06;6175579;23;20012;-90
2023/01/18 08:01:37;;;;;;;8.52;2.10;;;;;;;-146.73;100.00;56421.06;6173735;23;20013;-91
2023/01/18 08:04:04;;;;;;;9.07;2.20;;;;;;;-146.73;100.00;56421.06;6173826;23;20020;-91
2023/01/18 08:06:29;;;;;;;8.30;1.90;;;;;;;-146.73;100.00;56421.06;6175499;23;20004;-90
2023/01/18 08:09:01;;;;;;;8.60;2.15;;;;;;;-146.73;100.00;56421.06;6174762;23;20020;-90
2023/01/18 08:11:37;;;;;;;10.07;2.47;;;;;;;-146.73;100.00;56421.06;6177606;23;20005;-90
2023/01/18 08:14:06;;;;;;;8.05;2.13;;;;;;;-146.73;100.00;56421.06;6175081;23;20019;-91
2023/01/18 08:16:31;;;;;;;11.45;2.47;;;;;;;-146.73;100.00;56421.06;6177250;23;20012;-89
2023/01/18 08:18:57;;;;;;;7.25;2.25;;;;;;;-146.73;100.00;56421.06;6177267;23;20029;-90
2023/01/18 08:21:30;;;;;;;9.80;2.50;;;;;;;-146.73;100.00;56421.06;6176718;23;20028;-91
2023/01/18 08:23:59;;;;;;;6.38;2.08;;;;;;;-146.73;100.00;56421.06;6177929;23;20009;-90
2023/01/18 08:26:27;;;;;;;8.18;2.25;;;;;;;-146.73;100.00;56421.06;6178159;23;20104;-90
2023/01/18 08:29:12;;;;;;;9.30;2.35;;;;;;;-146.73;100.00;56421.06;6179203;23;20082;-91
2023/01/18 08:34:44;;;;;;;8.65;2.45;;;;;;;-146.73;100.00;56421.06;6175917;23;20016;-91
2023/01/18 08:37:13;;;;;;;8.73;2.05;;;;;;;-146.73;100.00;56421.06;6177756;23;20128;-91
2023/01/18 08:39:39;;;;;;;11.73;2.42;;;;;;;-146.73;100.00;56421.06;6177643;23;20350;-91
2023/01/18 08:42:05;;;;;;;35.92;3.85;;;;;;;-146.73;100.00;56421.06;6181827;23;20013;-92
2023/01/18 08:44:30;;;;;;;18.88;2.97;;;;;;;-146.73;100.00;56421.06;6179772;23;20423;-90
2023/01/18 08:46:55;;;;;;;7.72;2.08;;;;;;;-146.73;100.00;56421.06;6196155;23;20020;-91
2023/01/18 08:49:22;;;;;;;7.40;2.25;;;;;;;-146.73;100.00;56421.06;6197665;23;20039;-92
2023/01/18 08:51:47;;;;;;;14.30;3.38;;;;;;;-146.73;100.00;56421.06;6179704;23;20040;-91
2023/01/18 08:54:15;;;;;;;9.38;2.45;;;;;;;-146.73;100.00;56421.06;6181089;23;20028;-90
2023/01/18 08:56:41;;;;;;;10.48;2.50;;;;;;;-146.73;100.00;56421.06;6193358;23;20005;-90
2023/01/18 08:59:08;;;;;;;10.90;2.65;;;;;;;-146.73;100.00;56421.06;6205203;23;20072;-91
2023/01/18 09:01:37;;;;;;;7.13;1.98;;;;;;;-146.73;100.00;56421.06;6188551;23;20009;-91
2023/01/18 09:04:06;;;;;;;7.55;2.03;;;;;;;-146.73;100.00;56421.06;6179542;23;20009;-91
2023/01/18 09:06:32;;;;;;;8.27;2.45;;;;;;;-146.73;100.00;56421.06;6174605;23;20040;-91
2023/01/18 09:09:07;;;;;;;11.27;2.42;;;;;;;-146.73;100.00;56421.06;6174185;23;20065;-91
2023/01/18 09:11:33;;;;;;;7.78;2.20;;;;;;;-146.73;100.00;56421.06;6176656;23;20350;-90
2023/01/18 09:14:00;;;;;;;9.60;2.25;;;;;;;-146.73;100.00;56421.06;6175381;23;20429;-90
2023/01/18 09:16:25;;;;;;;9.40;2.25;;;;;;;-146.73;100.00;56421.06;6171706;23;20009;-90
2023/01/18 09:18:51;;;;;;;7.80;2.10;;;;;;;-146.73;100.00;56421.06;6170202;23;20033;-90
2023/01/18 09:21:17;;;;;;;8.68;2.10;;;;;;;-146.73;100.00;56421.06;6169902;23;20470;-90
2023/01/18 09:23:44;;;;;;;9.73;2.15;;;;;;;-146.73;100.00;56421.06;6171328;23;20514;-89
2023/01/18 09:26:19;;;;;;;7.28;1.80;;;;;;;-146.73;100.00;56421.06;6171115;23;20013;-89
2023/01/18 09:28:49;;;;;;;7.28;1.90;;;;;;;-146.73;100.00;56421.06;6170612;23;20021;-90
2023/01/18 09:31:16;;;;;;;6.97;2.00;;;;;;;-146.73;100.00;56421.06;6170250;23;20004;-90
2023/01/18 09:33:41;;;;;;;6.88;2.00;;;;;;;-146.73;100.00;56421.06;6171690;23;20016;-91
2023/01/18 09:36:10;;;;;;;7.60;2.10;;;;;;;-146.73;100.00;56421.06;6172238;23;20513;-91
2023/01/18 09:38:37;;;;;;;8.85;2.05;;;;;;;-146.73;100.00;56421.06;6170946;23;20027;-91
2023/01/18 09:41:22;;;;;;;9.50;2.10;;;;;;;-146.73;100.00;56421.06;6170921;23;20021;-91
2023/01/18 09:43:53;;;;;;;9.65;2.17;;;;;;;-146.73;100.00;56421.06;6173289;23;20079;-92
2023/01/18 09:46:21;;;;;;;10.52;2.05;;;;;;;-146.73;100.00;56421.06;6172760;23;20013;-91
2023/01/18 09:49:15;;;;;;;6.10;1.60;;;;;;;-146.73;100.00;56421.06;6170618;23;20428;-91
2023/01/18 09:52:13;;;;;;;8.52;1.70;;;;;;;-146.73;100.00;56421.06;6167072;23;20019;-89
2023/01/18 09:54:48;;;;;;;8.15;1.90;;;;;;;-146.73;100.00;56421.06;6169522;23;20124;-90
2023/01/18 09:57:22;;;;;;;6.97;1.52;;;;;;;-146.73;100.00;56421.06;6170172;23;20096;-90
2023/01/18 09:59:53;;;;;;;;;;;;;;;-146.73;100.00;56421.06;6172688;23;20049;-91
2023/01/18 10:02:24;;;;;;;6.70;1.85;;;;;;;-146.73;100.00;56421.06;6169756;23;19966;-90
2023/01/18 10:05:04;;;;;;;7.22;1.77;;;;;;;-146.73;100.00;56421.06;6171218;23;20001;-91
2023/01/18 10:07:35;;;;;;;5.78;1.55;;;;;;;-146.73;100.00;56421.06;6171366;23;20104;-88
2023/01/18 10:10:03;;;;;;;6.38;1.52;;;;;;;-146.73;100.00;56421.06;6173630;23;20080;-92
2023/01/18 10:12:44;;;;;;;9.57;2.20;;;;;;;-146.73;100.00;56421.06;6172871;23;20438;-92
2023/01/18 10:15:42;;;;;;;7.40;1.30;;;;;;;-146.73;100.00;56421.06;6173596;23;20539;-91
2023/01/18 10:18:54;;;;;;;;;;;;;;;;;;;;;
2023/01/18 10:22:08;;;;;;;7.55;1.45;;;;;;;-146.73;100.00;56421.06;6193774;23;20501;-89
2023/01/18 10:25:02;;;;;;;20.98;2.05;;;;;;;-146.73;100.00;56421.06;6176807;23;20019;-90
2023/01/18 10:27:43;;;;;;;9.43;1.63;;;;;;;-146.73;100.00;56421.06;6176959;23;20023;-91
2023/01/18 10:30:49;;;;;;;12.90;1.85;;;;;;;-146.73;100.00;56421.06;6178836;23;20040;-91
2023/01/18 10:33:31;;;;;;;10.38;1.95;;;;;;;-146.73;100.00;56421.06;6183949;23;20013;-91
2023/01/18 10:36:19;;;;;;;6.65;1.17;;;;;;;-146.73;100.00;56421.06;6181666;23;20008;-92
2023/01/18 10:39:01;;;;;;;8.07;1.60;;;;;;;-146.73;100.00;56421.06;6183946;23;20024;-93
2023/01/18 10:41:36;;;;;;;7.40;1.45;;;;;;;-146.73;100.00;56421.06;6186534;23;20017;-92
2023/01/18 10:44:02;;;;;;;6.03;1.30;;;;;;;-146.73;100.00;56421.06;6186974;23;20012;-93
2023/01/18 10:46:28;;;;;;;8.57;1.45;;;;;;;-146.73;100.00;56421.06;6186753;23;20016;-93
2023/01/18 10:49:01;;;;;;;11.07;2.58;;;;;;;-146.73;100.00;56421.06;6185523;23;20032;-92
2023/01/18 10:51:41;;;;;;;7.22;1.20;;;;;;;-146.73;100.00;56421.06;6213152;23;20277;-93
2023/01/18 10:54:47;;;;;;;7.22;1.30;;;;;;;-146.73;100.00;56421.06;6187803;23;20023;-92
2023/01/18 10:57:24;;;;;;;6.78;1.45;;;;;;;-146.73;100.00;56421.06;6198147;23;20000;-93
2023/01/18 10:59:52;;;;;;;7.47;1.60;;;;;;;-146.73;100.00;56421.06;6212175;23;20009;-93
2023/01/18 11:02:29;;;;;;;9.50;1.27;;;;;;;-146.73;100.00;56421.06;6189737;23;20017;-93
2023/01/18 11:05:19;;;;;;;7.10;1.27;;;;;;;-146.73;100.00;56421.06;6185668;23;20004;-93
2023/01/18 11:07:45;;;;;;;7.05;0.95;;;;;;;-146.73;100.00;56421.06;6196441;23;19991;-93
2023/01/18 11:10:25;;;;;;;5.60;0.98;;;;;;;-146.73;100.00;56421.06;6238698;23;20056;-93
2023/01/18 11:13:04;;;;;;;4.40;0.93;;;;;;;-146.73;100.00;56421.06;6215672;23;20411;-93
2023/01/18 11:15:39;;;;;;;5.90;1.08;;;;;;;-146.73;100.00;56421.06;6212158;23;20023;-94
2023/01/18 11:18:14;;;;;;;5.40;1.10;;;;;;;-146.73;100.00;56421.06;6179168;23;20039;-94
2023/01/18 11:20:49;;;;;;;4.85;1.00;;;;;;;-146.73;100.00;56421.06;6184234;23;20394;-94
2023/01/18 11:23:26;;;;;;;7.60;1.50;;;;;;;-146.73;100.00;56421.06;6183678;23;20008;-93
2023/01/18 11:26:22;;;;;;;6.63;1.17;;;;;;;-146.73;100.00;56421.06;6182234;23;20009;-92
2023/01/18 11:29:13;;;;;;;5.47;1.23;;;;;;;-146.73;100.00;56421.06;6180982;23;20442;-93
2023/01/18 11:31:48;;;;;;;8.10;1.30;;;;;;;-146.73;100.00;56421.06;6183399;23;20016;-92
2023/01/18 11:34:32;;;;;;;7.72;1.40;;;;;;;-146.73;100.00;56421.06;6185712;23;20013;-92
2023/01/18 11:37:02;;;;;;;6.97;1.55;;;;;;;-146.73;100.00;56421.06;6212982;23;20022;-93
2023/01/18 11:39:37;;;;;;;8.15;0.95;;;;;;;-146.73;100.00;56421.06;6185761;23;20012;-92
2023/01/18 11:42:21;;;;;;;6.70;1.30;;;;;;;-146.73;100.00;56421.06;6184958;23;20059;-93
2023/01/18 11:45:25;;;;;;;5.85;1.20;;;;;;;-146.73;100.00;56421.06;6185458;23;20385;-92
2023/01/18 11:48:02;;;;;;;8.83;1.33;;;;;;;-146.73;100.00;56421.06;6183238;23;20028;-92
2023/01/18 11:50:46;;;;;;;10.15;1.77;;;;;;;-146.73;100.00;56421.06;6183568;23;20353;-92
2023/01/18 11:53:36;;;;;;;6.63;1.40;;;;;;;-146.73;100.00;56421.06;6184342;23;20016;-93
2023/01/18 11:56:32;;;;;;;5.85;0.90;;;;;;;-146.73;100.00;56421.06;6208540;23;20009;-92
2023/01/18 11:59:02;;;;;;;8.80;1.10;;;;;;;-146.73;100.00;56421.06;6182436;23;20016;-92
2023/01/18 12:01:36;;;;;;;5.82;1.10;;;;;;;-146.73;100.00;56421.06;6184369;23;20020;-91
2023/01/18 12:04:13;;;;;;;5.85;1.10;;;;;;;-146.73;100.00;56421.06;6182229;23;20461;-93
2023/01/18 12:06:57;;;;;;;6.22;1.00;;;;;;;-146.73;100.00;56421.06;6210849;23;20001;-93
2023/01/18 12:09:48;;;;;;;7.20;1.05;;;;;;;-146.73;100.00;56421.06;6181264;23;20119;-92
2023/01/18 12:12:51;;;;;;;5.68;0.95;;;;;;;-146.73;100.00;56421.06;6181756;23;20008;-93
2023/01/18 12:15:44;;;;;;;8.90;1.30;;;;;;;-146.73;100.00;56421.06;6184946;23;20296;-93
2023/01/18 12:18:47;;;;;;;7.17;1.13;;;;;;;-146.73;100.00;56421.06;6185893;23;20250;-92
2023/01/18 12:21:54;;;;;;;5.45;1.20;;;;;;;-146.73;100.00;56421.06;6185745;23;20044;-94
2023/01/18 12:24:48;;;;;;;5.70;1.15;;;;;;;-146.73;100.00;56421.06;6185876;23;20000;-92
2023/01/18 12:27:52;;;;;;;7.57;1.23;;;;;;;-146.73;100.00;56421.06;6186052;23;20074;-95
2023/01/18 12:30:56;;;;;;;5.75;1.30;;;;;;;-146.73;100.00;56421.06;6037750;23;20015;-94
2023/01/18 12:33:43;;;;;;;7.25;1.20;;;;;;;-146.73;100.00;56421.06;6037462;23;20011;-93
2023/01/18 12:36:26;;;;;;;10.10;1.38;;;;;;;-146.73;100.00;56421.06;6034801;23;20062;-93
2023/01/18 12:38:59;;;;;;;9.02;1.60;;;;;;;-146.73;100.00;56421.06;6034152;23;20045;-92
2023/01/18 12:41:47;;;;;;;7.65;1.20;;;;;;;-146.73;100.00;56421.06;6036975;23;20404;-92
2023/01/18 12:44:50;;;;;;;6.47;1.08;;;;;;;-146.73;100.00;56421.06;6031923;23;20022;-93
2023/01/18 12:47:47;;;;;;;8.38;1.30;;;;;;;-146.73;100.00;56421.06;5997807;23;20091;-92
2023/01/18 12:53:56;;;;;;;7.35;1.23;;;;;;;-146.73;100.00;56421.06;6003972;23;20030;-93
2023/01/18 12:56:32;;;;;;;8.48;1.50;;;;;;;-146.73;100.00;56421.06;6003591;23;20029;-93
2023/01/18 12:59:18;;;;;;;9.05;1.52;;;;;;;-146.73;100.00;56421.06;5979722;23;20016;-92
2023/01/18 13:01:51;;;;;;;4.05;1.17;;;;;;;-146.73;100.00;56421.06;6002193;23;20361;-93
2023/01/18 13:04:26;;;;;;;;;;;;;;;-146.73;100.00;56421.06;5979713;23;20021;-92
2023/01/18 13:07:11;;;;;;;7.80;1.90;;;;;;;-146.73;100.00;56421.06;6103403;23;19933;-92